sensor_id;sensor_type;location;lat;lon;timestamp;P1;durP1;ratioP1;P2;durP2;ratioP2
25649;SDS011;13505;45.196;5.696;2023-07-02T04:34:57;14.70;;;10.40;;
25649;SDS011;13505;45.196;5.696;2023-07-02T04:39:48;19.88;;;11.35;;
25649;SDS011;13505;45.196;5.696;2023-07-02T04:44:38;14.80;;;10.43;;
25649;SDS011;13505;45.196;5.696;2023-07-02T04:49:29;16.88;;;11.13;;
25649;SDS011;13505;45.196;5.696;2023-07-02T04:54:21;13.35;;;10.20;;
25649;SDS011;13505;45.196;5.696;2023-07-02T04:59:12;15.80;;;10.57;;
25649;SDS011;13505;45.196;5.696;2023-07-02T05:04:02;21.42;;;11.40;;
25649;SDS011;13505;45.196;5.696;2023-07-02T05:08:52;16.38;;;11.15;;
25649;SDS011;13505;45.196;5.696;2023-07-02T05:13:43;19.52;;;12.85;;
25649;SDS011;13505;45.196;5.696;2023-07-02T05:18:33;17.70;;;11.15;;
25649;SDS011;13505;45.196;5.696;2023-07-02T05:23:24;16.35;;;11.05;;
25649;SDS011;13505;45.196;5.696;2023-07-02T05:28:14;17.52;;;11.00;;
25649;SDS011;13505;45.196;5.696;2023-07-02T05:33:05;18.23;;;12.10;;
25649;SDS011;13505;45.196;5.696;2023-07-02T05:37:55;17.23;;;11.57;;
25649;SDS011;13505;45.196;5.696;2023-07-02T05:42:47;16.23;;;12.43;;
25649;SDS011;13505;45.196;5.696;2023-07-02T05:47:37;24.58;;;13.25;;
25649;SDS011;13505;45.196;5.696;2023-07-02T05:52:28;20.70;;;13.25;;
25649;SDS011;13505;45.196;5.696;2023-07-02T05:57:18;20.88;;;12.27;;
25649;SDS011;13505;45.196;5.696;2023-07-02T06:02:28;19.05;;;12.25;;
25649;SDS011;13505;45.196;5.696;2023-07-02T06:07:20;18.70;;;12.15;;
25649;SDS011;13505;45.196;5.696;2023-07-02T06:12:11;14.88;;;11.02;;
25649;SDS011;13505;45.196;5.696;2023-07-02T06:17:02;22.27;;;12.15;;
25649;SDS011;13505;45.196;5.696;2023-07-02T06:22:05;20.48;;;12.27;;
25649;SDS011;13505;45.196;5.696;2023-07-02T06:27:37;19.38;;;12.85;;
25649;SDS011;13505;45.196;5.696;2023-07-02T06:32:30;21.73;;;11.98;;
25649;SDS011;13505;45.196;5.696;2023-07-02T06:38:09;16.73;;;10.48;;
25649;SDS011;13505;45.196;5.696;2023-07-02T06:43:23;18.65;;;11.45;;
25649;SDS011;13505;45.196;5.696;2023-07-02T06:48:28;23.27;;;12.32;;
25649;SDS011;13505;45.196;5.696;2023-07-02T06:59:18;16.00;;;11.38;;
25649;SDS011;13505;45.196;5.696;2023-07-02T07:05:08;20.20;;;12.38;;
25649;SDS011;13505;45.196;5.696;2023-07-02T07:10:56;23.00;;;13.10;;
25649;SDS011;13505;45.196;5.696;2023-07-02T07:16:35;17.48;;;11.68;;
25649;SDS011;13505;45.196;5.696;2023-07-02T07:22:08;20.48;;;12.50;;
25649;SDS011;13505;45.196;5.696;2023-07-02T07:33:28;20.23;;;12.82;;
25649;SDS011;13505;45.196;5.696;2023-07-02T07:39:07;24.85;;;15.10;;
25649;SDS011;13505;45.196;5.696;2023-07-02T07:44:40;21.38;;;13.18;;
25649;SDS011;13505;45.196;5.696;2023-07-02T07:50:05;19.85;;;13.70;;
25649;SDS011;13505;45.196;5.696;2023-07-02T07:55:01;20.93;;;13.80;;
25649;SDS011;13505;45.196;5.696;2023-07-02T08:00:12;20.85;;;13.90;;
25649;SDS011;13505;45.196;5.696;2023-07-02T08:05:17;23.60;;;14.27;;
25649;SDS011;13505;45.196;5.696;2023-07-02T08:10:09;20.20;;;13.18;;
25649;SDS011;13505;45.196;5.696;2023-07-02T08:15:22;20.25;;;14.20;;
25649;SDS011;13505;45.196;5.696;2023-07-02T08:20:13;23.50;;;14.82;;
25649;SDS011;13505;45.196;5.696;2023-07-02T08:25:04;20.92;;;14.35;;
25649;SDS011;13505;45.196;5.696;2023-07-02T08:29:56;21.05;;;14.45;;
25649;SDS011;13505;45.196;5.696;2023-07-02T08:34:48;21.88;;;14.63;;
25649;SDS011;13505;45.196;5.696;2023-07-02T08:39:40;22.40;;;14.35;;
25649;SDS011;13505;45.196;5.696;2023-07-02T08:44:53;24.02;;;14.85;;
25649;SDS011;13505;45.196;5.696;2023-07-02T08:49:58;23.75;;;15.18;;
25649;SDS011;13505;45.196;5.696;2023-07-02T08:54:48;25.05;;;15.70;;
25649;SDS011;13505;45.196;5.696;2023-07-02T08:59:39;22.83;;;15.50;;
25649;SDS011;13505;45.196;5.696;2023-07-02T09:04:58;25.65;;;15.40;;
25649;SDS011;13505;45.196;5.696;2023-07-02T09:09:50;24.13;;;14.82;;
25649;SDS011;13505;45.196;5.696;2023-07-02T09:15:11;22.25;;;14.68;;
25649;SDS011;13505;45.196;5.696;2023-07-02T09:21:14;21.83;;;14.30;;
25649;SDS011;13505;45.196;5.696;2023-07-02T09:26:36;20.60;;;13.90;;
25649;SDS011;13505;45.196;5.696;2023-07-02T09:32:23;22.20;;;14.45;;
25649;SDS011;13505;45.196;5.696;2023-07-02T09:43:22;21.10;;;14.32;;
25649;SDS011;13505;45.196;5.696;2023-07-02T09:49:01;23.23;;;14.93;;
25649;SDS011;13505;45.196;5.696;2023-07-02T09:54:13;21.58;;;14.48;;
25649;SDS011;13505;45.196;5.696;2023-07-02T10:05:34;21.52;;;14.77;;
25649;SDS011;13505;45.196;5.696;2023-07-02T11:11:12;22.23;;;15.10;;
25649;SDS011;13505;45.196;5.696;2023-07-02T11:46:48;16.35;;;9.50;;
25649;SDS011;13505;45.196;5.696;2023-07-02T13:05:33;10.20;;;6.47;;
25649;SDS011;13505;45.196;5.696;2023-07-02T13:23:16;7.30;;;5.78;;
25649;SDS011;13505;45.196;5.696;2023-07-02T13:29:09;6.72;;;5.40;;
25649;SDS011;13505;45.196;5.696;2023-07-02T13:35:04;7.60;;;5.90;;
25649;SDS011;13505;45.196;5.696;2023-07-02T13:40:50;6.63;;;5.57;;
25649;SDS011;13505;45.196;5.696;2023-07-02T14:21:54;7.25;;;5.88;;
25649;SDS011;13505;45.196;5.696;2023-07-02T14:27:48;8.95;;;6.55;;
25649;SDS011;13505;45.196;5.696;2023-07-02T14:51:15;7.88;;;5.78;;
25649;SDS011;13505;45.196;5.696;2023-07-02T14:57:07;9.70;;;5.70;;
25649;SDS011;13505;45.196;5.696;2023-07-02T15:03:01;8.40;;;5.32;;
25649;SDS011;13505;45.196;5.696;2023-07-02T15:08:57;7.18;;;5.93;;
25649;SDS011;13505;45.196;5.696;2023-07-02T15:15:02;6.53;;;5.07;;
25649;SDS011;13505;45.196;5.696;2023-07-02T15:33:18;9.77;;;5.28;;
25649;SDS011;13505;45.196;5.696;2023-07-02T15:56:48;8.75;;;5.75;;
25649;SDS011;13505;45.196;5.696;2023-07-02T16:08:51;6.75;;;5.60;;
25649;SDS011;13505;45.196;5.696;2023-07-02T16:14:45;8.30;;;5.78;;
25649;SDS011;13505;45.196;5.696;2023-07-02T16:26:47;7.57;;;5.93;;
25649;SDS011;13505;45.196;5.696;2023-07-02T16:32:12;9.85;;;6.97;;
25649;SDS011;13505;45.196;5.696;2023-07-02T16:37:05;9.68;;;7.35;;
25649;SDS011;13505;45.196;5.696;2023-07-02T16:41:55;8.52;;;6.65;;
25649;SDS011;13505;45.196;5.696;2023-07-02T16:46:46;9.73;;;7.23;;
25649;SDS011;13505;45.196;5.696;2023-07-02T16:51:38;10.00;;;7.40;;
25649;SDS011;13505;45.196;5.696;2023-07-02T16:56:32;8.70;;;6.97;;
25649;SDS011;13505;45.196;5.696;2023-07-02T17:01:23;10.50;;;7.07;;
25649;SDS011;13505;45.196;5.696;2023-07-02T17:06:13;10.90;;;6.83;;
25649;SDS011;13505;45.196;5.696;2023-07-02T17:11:04;7.77;;;5.67;;
25649;SDS011;13505;45.196;5.696;2023-07-02T17:15:56;7.68;;;6.00;;
25649;SDS011;13505;45.196;5.696;2023-07-02T17:20:50;9.85;;;6.00;;
25649;SDS011;13505;45.196;5.696;2023-07-02T17:25:42;9.55;;;5.75;;
25649;SDS011;13505;45.196;5.696;2023-07-02T17:30:32;7.55;;;5.63;;
25649;SDS011;13505;45.196;5.696;2023-07-02T17:35:22;7.63;;;5.30;;
25649;SDS011;13505;45.196;5.696;2023-07-02T17:40:13;8.90;;;5.80;;
25649;SDS011;13505;45.196;5.696;2023-07-02T17:45:03;7.57;;;4.82;;
25649;SDS011;13505;45.196;5.696;2023-07-02T17:49:54;6.22;;;4.20;;
25649;SDS011;13505;45.196;5.696;2023-07-02T17:54:48;6.40;;;4.07;;
25649;SDS011;13505;45.196;5.696;2023-07-02T17:59:40;6.70;;;4.20;;
25649;SDS011;13505;45.196;5.696;2023-07-02T18:04:30;5.05;;;4.07;;
25649;SDS011;13505;45.196;5.696;2023-07-02T18:09:21;8.50;;;4.57;;
25649;SDS011;13505;45.196;5.696;2023-07-02T18:14:12;7.63;;;4.80;;
25649;SDS011;13505;45.196;5.696;2023-07-02T18:19:02;10.80;;;6.88;;
25649;SDS011;13505;45.196;5.696;2023-07-02T18:23:52;13.07;;;5.60;;
25649;SDS011;13505;45.196;5.696;2023-07-02T18:28:43;9.23;;;6.17;;
25649;SDS011;13505;45.196;5.696;2023-07-02T18:33:33;9.98;;;6.55;;
25649;SDS011;13505;45.196;5.696;2023-07-02T18:38:24;12.63;;;5.70;;
25649;SDS011;13505;45.196;5.696;2023-07-02T18:43:14;7.03;;;5.00;;
25649;SDS011;13505;45.196;5.696;2023-07-02T18:48:04;9.57;;;5.67;;
25649;SDS011;13505;45.196;5.696;2023-07-02T18:52:56;7.57;;;5.55;;
25649;SDS011;13505;45.196;5.696;2023-07-02T18:57:47;10.95;;;4.88;;
25649;SDS011;13505;45.196;5.696;2023-07-02T19:02:37;7.70;;;4.70;;
25649;SDS011;13505;45.196;5.696;2023-07-02T19:07:28;7.70;;;4.90;;
25649;SDS011;13505;45.196;5.696;2023-07-02T19:12:19;6.28;;;4.55;;
25649;SDS011;13505;45.196;5.696;2023-07-02T19:17:11;10.88;;;4.40;;
25649;SDS011;13505;45.196;5.696;2023-07-02T19:22:03;8.10;;;5.10;;
25649;SDS011;13505;45.196;5.696;2023-07-02T19:26:53;7.03;;;4.90;;
25649;SDS011;13505;45.196;5.696;2023-07-02T19:31:43;7.17;;;4.73;;
25649;SDS011;13505;45.196;5.696;2023-07-02T19:36:37;8.93;;;4.85;;
25649;SDS011;13505;45.196;5.696;2023-07-02T19:41:27;9.13;;;5.72;;
25649;SDS011;13505;45.196;5.696;2023-07-02T19:46:17;8.68;;;5.65;;
25649;SDS011;13505;45.196;5.696;2023-07-02T19:51:08;9.30;;;5.50;;
25649;SDS011;13505;45.196;5.696;2023-07-02T19:55:58;6.82;;;5.30;;
25649;SDS011;13505;45.196;5.696;2023-07-02T20:00:54;10.27;;;5.93;;
25649;SDS011;13505;45.196;5.696;2023-07-02T20:05:44;9.57;;;6.03;;
25649;SDS011;13505;45.196;5.696;2023-07-02T20:10:34;9.25;;;5.63;;
25649;SDS011;13505;45.196;5.696;2023-07-02T20:15:25;7.70;;;5.18;;
25649;SDS011;13505;45.196;5.696;2023-07-02T20:20:16;7.30;;;5.20;;
25649;SDS011;13505;45.196;5.696;2023-07-02T20:25:06;7.32;;;5.32;;
25649;SDS011;13505;45.196;5.696;2023-07-02T20:29:57;9.75;;;6.07;;
25649;SDS011;13505;45.196;5.696;2023-07-02T20:34:47;7.75;;;5.03;;
25649;SDS011;13505;45.196;5.696;2023-07-02T20:39:39;8.45;;;5.47;;
25649;SDS011;13505;45.196;5.696;2023-07-02T20:44:30;10.07;;;6.15;;
25649;SDS011;13505;45.196;5.696;2023-07-02T20:49:21;9.53;;;6.60;;
25649;SDS011;13505;45.196;5.696;2023-07-02T20:54:12;10.10;;;6.22;;
25649;SDS011;13505;45.196;5.696;2023-07-02T20:59:04;12.95;;;6.35;;
25649;SDS011;13505;45.196;5.696;2023-07-02T21:03:54;9.73;;;6.22;;
25649;SDS011;13505;45.196;5.696;2023-07-02T21:08:45;8.70;;;5.90;;
25649;SDS011;13505;45.196;5.696;2023-07-02T21:13:36;11.60;;;5.97;;
25649;SDS011;13505;45.196;5.696;2023-07-02T21:18:26;8.48;;;5.45;;
25649;SDS011;13505;45.196;5.696;2023-07-02T21:23:17;10.68;;;6.00;;
25649;SDS011;13505;45.196;5.696;2023-07-02T21:28:07;11.77;;;5.95;;
25649;SDS011;13505;45.196;5.696;2023-07-02T21:32:58;10.95;;;6.03;;
25649;SDS011;13505;45.196;5.696;2023-07-02T21:37:51;9.70;;;5.82;;
25649;SDS011;13505;45.196;5.696;2023-07-02T21:42:41;10.52;;;6.20;;
25649;SDS011;13505;45.196;5.696;2023-07-02T21:47:31;12.07;;;6.50;;
25649;SDS011;13505;45.196;5.696;2023-07-02T21:52:22;12.32;;;7.38;;
25649;SDS011;13505;45.196;5.696;2023-07-02T21:57:12;10.67;;;6.73;;
